createdAt,value
2018-08-24T00:00:53.875Z,23.10
2018-08-24T00:03:23.095Z,23.10
2018-08-24T00:05:52.384Z,23.10
2018-08-24T00:08:22.076Z,23.10
2018-08-24T00:10:51.481Z,23.10
2018-08-24T00:13:20.537Z,23.10
2018-08-24T00:15:49.553Z,23.00
2018-08-24T00:18:18.594Z,23.00
2018-08-24T00:20:47.745Z,23.00
2018-08-24T00:23:16.837Z,23.00
2018-08-24T00:25:46.172Z,23.10
2018-08-24T00:28:15.216Z,23.10
2018-08-24T00:30:44.359Z,23.00
2018-08-24T00:33:13.735Z,23.00
2018-08-24T00:35:43.145Z,23.00
2018-08-24T00:38:12.389Z,22.90
2018-08-24T00:40:41.665Z,22.70
2018-08-24T00:43:10.847Z,22.80
2018-08-24T00:45:39.972Z,22.80
2018-08-24T00:48:09.202Z,22.70
2018-08-24T00:50:38.375Z,22.70
2018-08-24T00:53:07.910Z,22.70
2018-08-24T00:55:36.993Z,22.70
2018-08-24T00:58:06.483Z,22.50
2018-08-24T01:00:40.932Z,22.40
2018-08-24T01:03:11.362Z,22.40
2018-08-24T01:05:40.676Z,22.30
2018-08-24T01:08:09.974Z,22.30
2018-08-24T01:10:39.238Z,22.20
2018-08-24T01:13:13.834Z,22.20
2018-08-24T01:15:49.885Z,22.10
2018-08-24T01:18:23.102Z,22.00
2018-08-24T01:20:53.468Z,22.10
2018-08-24T01:23:24.128Z,22.10
2018-08-24T01:25:53.443Z,22.00
2018-08-24T01:28:23.188Z,21.90
2018-08-24T01:30:52.482Z,22.00
2018-08-24T01:33:21.866Z,22.10
2018-08-24T01:35:51.010Z,22.00
2018-08-24T01:38:20.090Z,21.90
2018-08-24T01:40:49.452Z,22.00
2018-08-24T01:43:18.603Z,22.00
2018-08-24T01:45:48.018Z,22.00
2018-08-24T01:48:17.024Z,22.00
2018-08-24T01:50:46.423Z,22.00
2018-08-24T01:53:15.782Z,22.00
2018-08-24T01:55:45.069Z,22.10
2018-08-24T01:58:14.263Z,22.00
2018-08-24T02:00:43.332Z,22.00
2018-08-24T02:03:12.325Z,22.10
2018-08-24T02:05:41.738Z,22.10
2018-08-24T02:08:11.006Z,22.00
2018-08-24T02:10:40.147Z,22.10
2018-08-24T02:13:14.679Z,22.00
2018-08-24T02:15:45.904Z,22.00
2018-08-24T02:18:20.160Z,21.90
2018-08-24T02:20:54.652Z,21.90
2018-08-24T02:23:23.667Z,21.80
2018-08-24T02:25:52.969Z,21.80
2018-08-24T02:28:22.260Z,21.80
2018-08-24T02:30:51.618Z,21.70
2018-08-24T02:33:20.902Z,21.70
2018-08-24T02:35:50.146Z,21.60
2018-08-24T02:38:19.240Z,21.70
2018-08-24T02:40:48.496Z,21.60
2018-08-24T02:43:17.684Z,21.60
2018-08-24T02:45:46.702Z,21.50
2018-08-24T02:48:15.916Z,21.50
2018-08-24T02:50:45.322Z,21.50
2018-08-24T02:53:14.618Z,21.40
2018-08-24T02:55:44.344Z,21.40
2018-08-24T02:58:13.708Z,21.40
2018-08-24T03:00:43.040Z,21.50
2018-08-24T03:03:12.096Z,21.40
2018-08-24T03:05:41.272Z,21.50
2018-08-24T03:08:10.334Z,21.40
2018-08-24T03:10:39.370Z,21.40
2018-08-24T03:13:08.909Z,21.40
2018-08-24T03:15:38.362Z,21.50
2018-08-24T03:18:07.621Z,21.50
2018-08-24T03:20:36.744Z,21.60
2018-08-24T03:23:06.154Z,21.40
2018-08-24T03:25:35.319Z,21.50
2018-08-24T03:28:04.488Z,21.50
2018-08-24T03:30:33.666Z,21.50
2018-08-24T03:33:03.019Z,21.40
2018-08-24T03:35:32.017Z,21.40
2018-08-24T03:38:01.188Z,21.40
2018-08-24T03:40:30.392Z,21.40
2018-08-24T03:42:59.692Z,21.40
2018-08-24T03:45:29.234Z,21.50
2018-08-24T03:47:58.299Z,21.50
2018-08-24T03:50:27.430Z,21.40
2018-08-24T03:52:56.767Z,21.40
2018-08-24T03:55:25.944Z,21.40
2018-08-24T03:57:55.174Z,21.40
2018-08-24T04:00:24.298Z,21.30
2018-08-24T04:02:53.752Z,21.40
2018-08-24T04:05:22.920Z,21.40
2018-08-24T04:07:51.958Z,21.40
2018-08-24T04:10:21.178Z,21.40
2018-08-24T04:12:50.316Z,21.40
2018-08-24T04:15:19.395Z,21.40
2018-08-24T04:17:48.944Z,21.40
2018-08-24T04:20:18.025Z,21.30
2018-08-24T04:22:47.170Z,21.20
2018-08-24T04:25:16.530Z,21.30
2018-08-24T04:27:45.896Z,21.30
2018-08-24T04:30:15.338Z,21.20
2018-08-24T04:32:47.184Z,21.00
2018-08-24T04:35:16.430Z,21.10
2018-08-24T04:37:46.632Z,21.10
2018-08-24T04:40:16.772Z,21.10
2018-08-24T04:42:47.538Z,20.90
2018-08-24T04:45:17.532Z,20.70
2018-08-24T04:47:48.289Z,20.70
2018-08-24T04:50:18.313Z,20.60
2018-08-24T04:52:48.334Z,20.50
2018-08-24T04:55:19.314Z,20.50
2018-08-24T04:57:49.682Z,20.50
2018-08-24T05:00:20.232Z,20.30
2018-08-24T05:02:50.342Z,20.40
2018-08-24T05:05:20.236Z,20.40
2018-08-24T05:07:50.199Z,20.50
2018-08-24T05:10:20.820Z,20.40
2018-08-24T05:12:50.758Z,20.50
2018-08-24T05:15:21.316Z,20.50
2018-08-24T05:17:50.816Z,20.40
2018-08-24T05:20:20.734Z,20.40
2018-08-24T05:22:52.426Z,20.40
2018-08-24T05:25:23.113Z,20.30
2018-08-24T05:27:52.832Z,20.30
2018-08-24T05:30:23.920Z,20.30
2018-08-24T05:32:53.907Z,20.20
2018-08-24T05:35:24.278Z,20.20
2018-08-24T05:37:55.589Z,20.20
2018-08-24T05:40:26.300Z,20.20
2018-08-24T05:42:56.208Z,20.20
2018-08-24T05:45:26.238Z,20.30
2018-08-24T05:47:56.406Z,20.20
2018-08-24T05:50:26.859Z,20.20
2018-08-24T05:52:57.223Z,20.20
2018-08-24T05:55:27.221Z,20.10
2018-08-24T05:57:57.594Z,20.10
2018-08-24T06:00:32.545Z,20.00
2018-08-24T06:03:02.948Z,19.90
2018-08-24T06:05:33.284Z,19.80
2018-08-24T06:08:03.321Z,19.80
2018-08-24T06:10:32.989Z,19.80
2018-08-24T06:13:03.723Z,19.70
2018-08-24T06:15:33.573Z,19.70
2018-08-24T06:18:04.463Z,19.80
2018-08-24T06:20:34.610Z,19.80
2018-08-24T06:23:05.033Z,19.90
2018-08-24T06:25:35.429Z,19.90
2018-08-24T06:28:06.418Z,19.80
2018-08-24T06:30:36.233Z,20.00
2018-08-24T06:33:06.507Z,20.00
2018-08-24T06:35:36.463Z,20.10
2018-08-24T06:38:06.355Z,20.30
2018-08-24T06:40:36.372Z,20.30
2018-08-24T06:43:06.226Z,20.30
2018-08-24T06:45:36.531Z,20.40
2018-08-24T06:48:06.859Z,20.30
2018-08-24T06:50:37.090Z,20.60
2018-08-24T06:53:07.666Z,20.50
2018-08-24T06:55:37.811Z,20.70
2018-08-24T06:58:08.381Z,20.90
2018-08-24T07:00:38.613Z,20.80
2018-08-24T07:03:08.856Z,20.80
2018-08-24T07:05:38.850Z,20.80
2018-08-24T07:08:08.739Z,20.70
2018-08-24T07:10:38.701Z,20.70
2018-08-24T07:13:10.215Z,20.60
2018-08-24T07:15:41.139Z,20.70
2018-08-24T07:18:11.401Z,20.70
2018-08-24T07:20:41.297Z,20.60
2018-08-24T07:23:11.021Z,20.60
2018-08-24T07:25:40.804Z,20.50
2018-08-24T07:28:10.370Z,20.60
2018-08-24T07:30:40.296Z,20.50
2018-08-24T07:33:11.308Z,20.50
2018-08-24T07:35:43.262Z,20.50
2018-08-24T07:38:13.884Z,20.50
2018-08-24T07:40:44.408Z,20.60
2018-08-24T07:43:15.023Z,20.60
2018-08-24T07:45:45.502Z,20.60
2018-08-24T07:48:15.800Z,20.50
2018-08-24T07:50:45.356Z,20.70
2018-08-24T07:53:15.164Z,20.90
2018-08-24T07:55:45.146Z,20.80
2018-08-24T07:58:15.642Z,20.90
2018-08-24T08:00:45.483Z,21.10
2018-08-24T08:03:15.513Z,21.10
2018-08-24T08:05:45.144Z,21.10
2018-08-24T08:08:15.560Z,21.10
2018-08-24T08:10:45.804Z,21.20
2018-08-24T08:13:15.519Z,21.10
2018-08-24T08:15:45.368Z,20.90
2018-08-24T08:18:15.646Z,20.90
2018-08-24T08:20:45.576Z,21.10
2018-08-24T08:23:15.094Z,21.30
2018-08-24T08:25:45.688Z,21.40
2018-08-24T08:28:15.438Z,21.50
2018-08-24T08:30:45.297Z,21.30
2018-08-24T08:33:15.765Z,21.40
2018-08-24T08:35:46.502Z,21.40
2018-08-24T08:38:18.295Z,21.40
2018-08-24T08:40:49.753Z,21.40
2018-08-24T08:43:20.217Z,21.40
2018-08-24T08:45:50.890Z,21.30
2018-08-24T08:48:20.582Z,21.30
2018-08-24T08:50:50.496Z,21.40
2018-08-24T08:53:20.417Z,21.40
2018-08-24T08:55:50.924Z,21.30
2018-08-24T08:58:20.850Z,21.30
2018-08-24T09:00:51.442Z,21.40
2018-08-24T09:03:21.610Z,21.40
2018-08-24T09:05:52.118Z,21.40
2018-08-24T09:08:23.092Z,21.50
2018-08-24T09:10:52.792Z,21.50
2018-08-24T09:13:22.766Z,21.50
2018-08-24T09:15:53.149Z,21.50
2018-08-24T09:18:28.372Z,21.50
2018-08-24T09:21:03.046Z,21.50
2018-08-24T09:23:38.534Z,21.60
2018-08-24T09:28:15.408Z,21.50
2018-08-24T09:30:55.502Z,21.40
2018-08-24T09:33:25.393Z,21.40
2018-08-24T09:35:55.684Z,21.50
2018-08-24T09:38:25.889Z,21.60
2018-08-24T09:40:58.672Z,21.50
2018-08-24T09:43:34.035Z,21.70
2018-08-24T09:46:03.960Z,21.60
2018-08-24T09:48:39.282Z,21.50
2018-08-24T09:51:14.623Z,21.60
2018-08-24T09:53:50.045Z,21.50
2018-08-24T09:56:22.076Z,21.50
2018-08-24T09:58:52.492Z,21.50
2018-08-24T10:01:27.912Z,21.70
2018-08-24T10:04:02.796Z,21.80
2018-08-24T10:06:37.968Z,21.80
2018-08-24T10:09:10.839Z,21.80
2018-08-24T10:11:41.294Z,21.80
2018-08-24T10:14:11.973Z,21.80
2018-08-24T10:16:42.244Z,21.80
2018-08-24T10:19:13.355Z,21.80
2018-08-24T10:21:43.604Z,21.80
2018-08-24T10:24:13.173Z,21.70
2018-08-24T10:26:43.913Z,21.70
2018-08-24T10:29:13.759Z,21.50
2018-08-24T10:31:44.153Z,21.30
2018-08-24T10:34:22.238Z,21.00
2018-08-24T10:36:52.837Z,20.90
2018-08-24T10:39:23.853Z,20.30
2018-08-24T10:41:53.830Z,19.60
2018-08-24T10:44:23.829Z,19.40
2018-08-24T10:46:54.216Z,19.30
2018-08-24T10:49:24.676Z,19.20
2018-08-24T10:51:55.111Z,19.10
2018-08-24T10:54:26.295Z,19.00
2018-08-24T10:56:56.927Z,18.90
2018-08-24T10:59:28.155Z,18.80
2018-08-24T11:01:59.275Z,18.90
2018-08-24T11:04:30.011Z,18.80
2018-08-24T11:07:00.407Z,18.90
2018-08-24T11:09:31.123Z,19.00
2018-08-24T11:12:01.391Z,19.00
2018-08-24T11:14:31.451Z,19.20
2018-08-24T11:17:02.369Z,19.20
2018-08-24T11:19:32.975Z,19.30
2018-08-24T11:22:03.113Z,19.30
2018-08-24T11:24:33.339Z,19.40
2018-08-24T11:27:03.791Z,19.40
2018-08-24T11:29:34.151Z,19.50
2018-08-24T11:32:04.756Z,19.50
2018-08-24T11:34:35.328Z,19.50
2018-08-24T11:37:06.503Z,19.40
2018-08-24T11:39:38.811Z,19.40
2018-08-24T11:42:09.856Z,19.50
2018-08-24T11:44:39.579Z,19.50
2018-08-24T11:47:09.436Z,19.60
2018-08-24T11:49:40.313Z,19.60
2018-08-24T11:52:11.259Z,19.80
2018-08-24T11:54:41.932Z,19.60
2018-08-24T11:57:12.671Z,19.60
2018-08-24T11:59:43.355Z,19.90
2018-08-24T12:02:13.508Z,19.90
2018-08-24T12:04:43.271Z,20.20
2018-08-24T12:07:13.489Z,20.30
2018-08-24T12:09:43.731Z,20.40
2018-08-24T12:12:14.285Z,20.40
2018-08-24T12:14:44.698Z,20.50
2018-08-24T12:17:18.999Z,20.60
2018-08-24T12:19:49.927Z,20.40
2018-08-24T12:22:20.504Z,20.70
2018-08-24T12:24:50.732Z,20.50
2018-08-24T12:27:21.146Z,20.50
2018-08-24T12:29:51.486Z,20.60
2018-08-24T12:32:21.521Z,20.70
2018-08-24T12:34:52.430Z,20.90
2018-08-24T12:37:22.560Z,21.00
2018-08-24T12:39:52.388Z,21.10
2018-08-24T12:42:22.573Z,21.10
2018-08-24T12:44:52.700Z,21.10
2018-08-24T12:47:23.403Z,21.10
2018-08-24T12:49:53.456Z,21.10
2018-08-24T12:52:23.495Z,21.30
2018-08-24T12:54:54.562Z,21.30
2018-08-24T12:57:30.030Z,21.50
2018-08-24T13:00:02.572Z,21.60
2018-08-24T13:02:33.483Z,21.70
2018-08-24T13:05:03.978Z,21.70
2018-08-24T13:07:33.908Z,21.70
2018-08-24T13:10:03.918Z,21.80
2018-08-24T13:12:34.212Z,22.00
2018-08-24T13:15:05.031Z,22.10
2018-08-24T13:17:35.421Z,22.20
2018-08-24T13:20:06.573Z,22.30
2018-08-24T13:22:37.349Z,22.50
2018-08-24T13:25:07.430Z,22.30
2018-08-24T13:27:37.788Z,22.30
2018-08-24T13:30:09.046Z,22.30
2018-08-24T13:32:39.302Z,22.40
2018-08-24T13:35:10.279Z,22.60
2018-08-24T13:37:41.364Z,22.50
2018-08-24T13:40:12.086Z,22.50
2018-08-24T13:42:42.875Z,22.70
2018-08-24T13:45:13.440Z,22.70
2018-08-24T13:47:44.033Z,22.80
2018-08-24T13:50:15.045Z,22.70
2018-08-24T13:52:45.267Z,22.70
2018-08-24T13:55:15.738Z,22.80
2018-08-24T13:57:46.393Z,22.90
2018-08-24T14:00:16.729Z,22.90
2018-08-24T14:02:47.674Z,23.00
2018-08-24T14:05:18.062Z,23.10
2018-08-24T14:07:48.277Z,23.20
2018-08-24T14:10:18.355Z,23.10
2018-08-24T14:12:48.146Z,23.00
2018-08-24T14:15:18.912Z,23.20
2018-08-24T14:17:52.480Z,23.10
2018-08-24T14:20:23.884Z,23.10
2018-08-24T14:22:54.692Z,23.20
2018-08-24T14:25:25.125Z,23.10
2018-08-24T14:27:55.323Z,23.20
2018-08-24T14:30:26.733Z,23.20
2018-08-24T14:32:57.932Z,23.30
2018-08-24T14:35:28.111Z,23.50
2018-08-24T14:37:58.574Z,23.60
2018-08-24T14:40:28.952Z,23.80
2018-08-24T14:42:59.196Z,23.80
2018-08-24T14:45:30.036Z,23.70
2018-08-24T14:48:02.191Z,23.60
2018-08-24T14:50:32.768Z,23.50
2018-08-24T14:53:03.050Z,23.50
2018-08-24T14:55:35.315Z,23.50
2018-08-24T14:58:05.956Z,23.50
2018-08-24T15:00:36.458Z,23.60
2018-08-24T15:03:07.397Z,23.50
2018-08-24T15:05:39.096Z,23.50
2018-08-24T15:08:09.819Z,23.40
2018-08-24T15:10:40.430Z,23.40
2018-08-24T15:13:12.313Z,23.20
2018-08-24T15:15:42.723Z,23.20
2018-08-24T15:18:13.889Z,23.10
2018-08-24T15:20:44.074Z,23.10
2018-08-24T15:23:13.935Z,23.10
2018-08-24T15:25:43.882Z,23.10
2018-08-24T15:28:14.308Z,23.00
2018-08-24T15:30:44.800Z,23.00
2018-08-24T15:33:15.530Z,23.10
2018-08-24T15:35:45.824Z,23.20
2018-08-24T15:38:16.604Z,23.10
2018-08-24T15:40:46.869Z,22.90
2018-08-24T15:43:17.320Z,22.80
2018-08-24T15:45:48.027Z,22.80
2018-08-24T15:48:18.146Z,22.80
2018-08-24T15:50:48.260Z,22.70
2018-08-24T15:53:18.034Z,22.80
2018-08-24T15:55:48.253Z,22.60
2018-08-24T15:58:19.166Z,22.50
2018-08-24T16:00:50.172Z,22.30
2018-08-24T16:03:21.090Z,22.40
2018-08-24T16:05:52.313Z,22.50
2018-08-24T16:08:22.952Z,22.40
2018-08-24T16:10:53.491Z,22.40
2018-08-24T16:13:23.882Z,22.40
2018-08-24T16:15:54.251Z,22.30
2018-08-24T16:18:25.362Z,22.40
2018-08-24T16:20:55.755Z,22.30
2018-08-24T16:23:26.392Z,22.30
2018-08-24T16:25:56.994Z,22.30
2018-08-24T16:28:28.038Z,22.40
2018-08-24T16:30:59.500Z,22.40
2018-08-24T16:33:30.338Z,22.40
2018-08-24T16:36:01.558Z,22.30
2018-08-24T16:38:32.624Z,22.20
2018-08-24T16:41:03.086Z,22.10
2018-08-24T16:43:34.104Z,22.00
2018-08-24T16:46:04.973Z,22.00
2018-08-24T16:48:35.673Z,22.10
2018-08-24T16:51:06.437Z,22.00
2018-08-24T16:53:36.878Z,22.00
2018-08-24T16:56:08.562Z,22.00
2018-08-24T16:58:39.601Z,22.00
2018-08-24T17:01:14.144Z,21.90
2018-08-24T17:03:47.103Z,22.00
2018-08-24T17:06:18.234Z,22.00
2018-08-24T17:08:54.904Z,21.80
2018-08-24T17:11:30.134Z,21.80
2018-08-24T17:14:01.881Z,21.80
2018-08-24T17:16:33.188Z,21.80
2018-08-24T17:19:04.715Z,21.70
2018-08-24T17:21:36.117Z,21.70
2018-08-24T17:24:07.860Z,21.60
2018-08-24T17:26:39.004Z,21.60
2018-08-24T17:29:10.842Z,21.60
2018-08-24T17:31:43.779Z,21.60
2018-08-24T17:34:15.572Z,21.40
2018-08-24T17:36:47.239Z,21.30
2018-08-24T17:39:18.605Z,21.30
2018-08-24T17:41:49.904Z,21.30
2018-08-24T17:44:21.803Z,21.20
2018-08-24T17:46:52.907Z,21.20
2018-08-24T17:49:29.189Z,21.00
2018-08-24T17:52:03.138Z,20.90
2018-08-24T17:54:33.488Z,21.00
2018-08-24T17:57:03.993Z,20.90
2018-08-24T17:59:34.660Z,20.70
2018-08-24T18:02:05.470Z,20.60
2018-08-24T18:04:36.505Z,20.50
2018-08-24T18:07:07.872Z,20.60
2018-08-24T18:09:40.942Z,20.60
2018-08-24T18:12:11.620Z,20.60
2018-08-24T18:14:42.174Z,20.50
2018-08-24T18:17:13.208Z,20.50
2018-08-24T18:19:43.206Z,20.60
2018-08-24T18:22:13.571Z,20.50
2018-08-24T18:24:43.028Z,20.50
2018-08-24T18:27:13.068Z,20.50
2018-08-24T18:29:42.723Z,20.50
2018-08-24T18:32:12.188Z,20.40
2018-08-24T18:34:43.063Z,20.30
2018-08-24T18:37:12.430Z,20.30
2018-08-24T18:39:42.405Z,20.40
2018-08-24T18:42:12.149Z,20.30
2018-08-24T18:44:41.728Z,20.40
2018-08-24T18:47:11.040Z,20.50
2018-08-24T18:49:40.316Z,20.30
2018-08-24T18:52:09.742Z,20.30
2018-08-24T18:54:39.439Z,20.50
2018-08-24T18:57:08.503Z,20.50
2018-08-24T18:59:37.847Z,20.50
2018-08-24T19:02:07.318Z,20.40
2018-08-24T19:04:36.603Z,20.40
2018-08-24T19:07:06.432Z,20.50
2018-08-24T19:09:35.832Z,20.50
2018-08-24T19:12:10.741Z,20.50
2018-08-24T19:14:40.020Z,20.40
2018-08-24T19:17:13.995Z,20.30
2018-08-24T19:19:49.007Z,20.10
2018-08-24T19:22:18.447Z,20.10
2018-08-24T19:24:48.235Z,20.00
2018-08-24T19:27:17.702Z,20.10
2018-08-24T19:29:52.294Z,20.00
2018-08-24T19:32:21.478Z,20.00
2018-08-24T19:34:50.899Z,20.00
2018-08-24T19:37:20.199Z,19.90
2018-08-24T19:39:54.913Z,19.90
2018-08-24T19:42:25.921Z,19.90
2018-08-24T19:44:55.757Z,19.60
2018-08-24T19:47:30.298Z,19.80
2018-08-24T19:49:59.635Z,19.70
2018-08-24T19:52:29.328Z,19.70
2018-08-24T19:54:58.749Z,19.70
2018-08-24T19:57:33.147Z,19.70
2018-08-24T20:00:02.613Z,19.70
2018-08-24T20:02:31.945Z,19.60
2018-08-24T20:05:01.337Z,19.70
2018-08-24T20:09:38.911Z,19.60
2018-08-24T20:12:08.347Z,19.60
2018-08-24T20:14:43.018Z,19.60
2018-08-24T20:17:17.781Z,19.60
2018-08-24T20:19:47.288Z,19.70
2018-08-24T20:22:17.181Z,19.70
2018-08-24T20:24:46.629Z,19.60
2018-08-24T20:27:16.331Z,19.70
2018-08-24T20:29:47.551Z,19.60
2018-08-24T20:32:17.641Z,19.70
2018-08-24T20:34:47.305Z,19.70
2018-08-24T20:37:16.833Z,19.70
2018-08-24T20:39:46.234Z,19.70
2018-08-24T20:42:19.677Z,19.60
2018-08-24T20:44:49.512Z,19.50
2018-08-24T20:47:19.361Z,19.60
2018-08-24T20:49:49.635Z,19.60
2018-08-24T20:52:19.153Z,19.50
2018-08-24T20:54:49.310Z,19.50
2018-08-24T20:57:18.574Z,19.40
2018-08-24T20:59:48.346Z,19.50
2018-08-24T21:02:17.707Z,19.40
2018-08-24T21:04:46.883Z,19.50
2018-08-24T21:07:16.262Z,19.50
2018-08-24T21:09:46.592Z,19.50
2018-08-24T21:12:16.659Z,19.40
2018-08-24T21:14:47.651Z,19.40
2018-08-24T21:17:16.980Z,19.40
2018-08-24T21:19:46.048Z,19.30
2018-08-24T21:22:15.131Z,19.30
2018-08-24T21:24:44.757Z,19.20
2018-08-24T21:27:14.578Z,19.30
2018-08-24T21:29:44.326Z,19.20
2018-08-24T21:32:13.521Z,19.20
2018-08-24T21:34:42.829Z,19.10
2018-08-24T21:37:12.047Z,18.90
2018-08-24T21:39:41.365Z,19.00
2018-08-24T21:42:10.938Z,19.00
2018-08-24T21:44:40.292Z,18.90
2018-08-24T21:47:10.003Z,18.80
2018-08-24T21:49:39.632Z,18.80
2018-08-24T21:52:09.064Z,18.80
2018-08-24T21:54:38.761Z,18.70
2018-08-24T21:57:08.029Z,18.70
2018-08-24T21:59:37.474Z,18.70
2018-08-24T22:02:06.844Z,18.70
2018-08-24T22:04:36.372Z,18.60
2018-08-24T22:07:05.728Z,18.60
2018-08-24T22:09:35.314Z,18.60
2018-08-24T22:12:04.936Z,18.60
2018-08-24T22:14:34.346Z,18.60
2018-08-24T22:17:03.580Z,18.50
2018-08-24T22:19:33.107Z,18.50
2018-08-24T22:22:02.493Z,18.50
2018-08-24T22:24:32.037Z,18.50
2018-08-24T22:27:01.664Z,18.50
2018-08-24T22:29:30.851Z,18.40
2018-08-24T22:31:59.925Z,18.30
2018-08-24T22:34:30.079Z,18.30
2018-08-24T22:36:59.447Z,18.20
2018-08-24T22:39:29.216Z,18.20
2018-08-24T22:41:58.280Z,18.00
2018-08-24T22:44:27.393Z,18.10
2018-08-24T22:46:57.207Z,18.10
2018-08-24T22:49:26.429Z,18.00
2018-08-24T22:51:55.965Z,17.90
2018-08-24T22:54:26.008Z,17.90
2018-08-24T22:56:57.238Z,17.80
2018-08-24T22:59:28.053Z,17.90
2018-08-24T23:01:57.534Z,17.80
2018-08-24T23:04:27.723Z,17.80
2018-08-24T23:06:57.595Z,17.80
2018-08-24T23:09:26.902Z,17.70
2018-08-24T23:11:57.127Z,17.60
2018-08-24T23:14:26.529Z,17.70
2018-08-24T23:16:55.953Z,17.60
2018-08-24T23:19:25.144Z,17.50
2018-08-24T23:21:54.421Z,17.50
2018-08-24T23:24:23.560Z,17.40
2018-08-24T23:26:52.707Z,17.50
2018-08-24T23:29:21.931Z,17.40
2018-08-24T23:31:51.395Z,17.40
2018-08-24T23:34:20.645Z,17.40
2018-08-24T23:36:49.731Z,17.40
2018-08-24T23:39:19.501Z,17.40
2018-08-24T23:41:48.501Z,17.40
2018-08-24T23:44:17.973Z,17.40
2018-08-24T23:46:47.684Z,17.30
2018-08-24T23:49:17.009Z,17.30
2018-08-24T23:51:46.453Z,17.30
2018-08-24T23:54:15.853Z,17.20
2018-08-24T23:56:45.181Z,17.30
2018-08-24T23:59:14.985Z,17.30
